sensor_id;sensor_type;location;lat;lon;timestamp;temperature;humidity
20315;DHT22;10315;50.958;13.080;2022-09-03T00:09:49;9.90;99.90
20315;DHT22;10315;50.958;13.080;2022-09-03T00:19:54;9.70;99.90
20315;DHT22;10315;50.958;13.080;2022-09-03T00:30:00;9.80;99.90
20315;DHT22;10315;50.958;13.080;2022-09-03T00:40:05;10.20;99.90
20315;DHT22;10315;50.958;13.080;2022-09-03T00:50:21;10.10;99.90
20315;DHT22;10315;50.958;13.080;2022-09-03T01:00:29;10.30;99.90
20315;DHT22;10315;50.958;13.080;2022-09-03T01:10:37;10.40;99.90
20315;DHT22;10315;50.958;13.080;2022-09-03T01:20:49;10.40;99.90
20315;DHT22;10315;50.958;13.080;2022-09-03T01:30:58;10.20;99.90
20315;DHT22;10315;50.958;13.080;2022-09-03T01:41:08;10.30;99.90
20315;DHT22;10315;50.958;13.080;2022-09-03T01:51:29;10.50;99.90
20315;DHT22;10315;50.958;13.080;2022-09-03T02:01:33;10.60;99.90
20315;DHT22;10315;50.958;13.080;2022-09-03T02:11:38;10.60;99.90
20315;DHT22;10315;50.958;13.080;2022-09-03T02:21:45;10.70;99.90
20315;DHT22;10315;50.958;13.080;2022-09-03T02:31:52;10.50;99.90
20315;DHT22;10315;50.958;13.080;2022-09-03T02:41:54;10.50;99.90
20315;DHT22;10315;50.958;13.080;2022-09-03T02:52:00;10.30;99.90
20315;DHT22;10315;50.958;13.080;2022-09-03T03:02:04;10.40;99.90
20315;DHT22;10315;50.958;13.080;2022-09-03T03:12:10;10.10;99.90
20315;DHT22;10315;50.958;13.080;2022-09-03T03:22:12;9.90;99.90
20315;DHT22;10315;50.958;13.080;2022-09-03T03:32:15;9.60;99.90
20315;DHT22;10315;50.958;13.080;2022-09-03T03:42:16;9.60;99.90
20315;DHT22;10315;50.958;13.080;2022-09-03T03:52:19;9.50;99.90
20315;DHT22;10315;50.958;13.080;2022-09-03T04:02:21;9.00;99.90
20315;DHT22;10315;50.958;13.080;2022-09-03T04:12:25;9.10;99.90
20315;DHT22;10315;50.958;13.080;2022-09-03T04:22:27;9.10;99.90
20315;DHT22;10315;50.958;13.080;2022-09-03T04:32:31;9.20;99.90
20315;DHT22;10315;50.958;13.080;2022-09-03T04:42:50;9.20;99.90
20315;DHT22;10315;50.958;13.080;2022-09-03T04:53:00;9.20;99.90
20315;DHT22;10315;50.958;13.080;2022-09-03T05:03:11;8.90;99.90
20315;DHT22;10315;50.958;13.080;2022-09-03T05:13:14;9.00;99.90
20315;DHT22;10315;50.958;13.080;2022-09-03T05:23:17;9.10;99.90
20315;DHT22;10315;50.958;13.080;2022-09-03T05:33:20;9.10;99.90
20315;DHT22;10315;50.958;13.080;2022-09-03T05:43:23;9.60;99.90
20315;DHT22;10315;50.958;13.080;2022-09-03T05:53:26;10.20;99.90
20315;DHT22;10315;50.958;13.080;2022-09-03T06:03:27;10.80;99.90
20315;DHT22;10315;50.958;13.080;2022-09-03T06:13:31;11.30;99.90
20315;DHT22;10315;50.958;13.080;2022-09-03T06:23:34;12.90;99.90
20315;DHT22;10315;50.958;13.080;2022-09-03T06:33:38;14.70;99.90
20315;DHT22;10315;50.958;13.080;2022-09-03T06:44:00;18.00;99.90
20315;DHT22;10315;50.958;13.080;2022-09-03T06:54:08;23.90;99.90
20315;DHT22;10315;50.958;13.080;2022-09-03T07:04:10;30.70;87.80
20315;DHT22;10315;50.958;13.080;2022-09-03T07:14:14;36.60;57.90
20315;DHT22;10315;50.958;13.080;2022-09-03T07:24:17;37.10;50.90
20315;DHT22;10315;50.958;13.080;2022-09-03T07:34:27;40.90;46.10
20315;DHT22;10315;50.958;13.080;2022-09-03T07:44:29;38.20;45.00
20315;DHT22;10315;50.958;13.080;2022-09-03T07:54:32;34.60;48.40
20315;DHT22;10315;50.958;13.080;2022-09-03T08:04:34;36.40;44.50
20315;DHT22;10315;50.958;13.080;2022-09-03T08:14:37;34.80;46.40
20315;DHT22;10315;50.958;13.080;2022-09-03T08:24:39;32.20;49.30
20315;DHT22;10315;50.958;13.080;2022-09-03T08:34:42;36.40;43.80
20315;DHT22;10315;50.958;13.080;2022-09-03T08:44:46;36.90;43.70
20315;DHT22;10315;50.958;13.080;2022-09-03T08:54:50;34.90;45.60
20315;DHT22;10315;50.958;13.080;2022-09-03T09:04:58;37.90;42.90
20315;DHT22;10315;50.958;13.080;2022-09-03T09:15:10;39.00;41.90
20315;DHT22;10315;50.958;13.080;2022-09-03T09:25:17;37.90;43.10
20315;DHT22;10315;50.958;13.080;2022-09-03T09:35:21;32.70;45.70
20315;DHT22;10315;50.958;13.080;2022-09-03T09:45:23;26.70;55.00
20315;DHT22;10315;50.958;13.080;2022-09-03T09:55:26;25.30;56.90
20315;DHT22;10315;50.958;13.080;2022-09-03T10:05:30;24.70;57.60
20315;DHT22;10315;50.958;13.080;2022-09-03T10:15:38;24.00;59.20
20315;DHT22;10315;50.958;13.080;2022-09-03T10:25:50;24.10;59.10
20315;DHT22;10315;50.958;13.080;2022-09-03T10:36:03;24.00;59.40
20315;DHT22;10315;50.958;13.080;2022-09-03T10:46:14;23.70;60.70
20315;DHT22;10315;50.958;13.080;2022-09-03T10:56:24;23.90;60.40
20315;DHT22;10315;50.958;13.080;2022-09-03T11:06:39;23.20;60.00
20315;DHT22;10315;50.958;13.080;2022-09-03T11:16:52;23.20;60.90
20315;DHT22;10315;50.958;13.080;2022-09-03T11:27:03;22.90;60.30
20315;DHT22;10315;50.958;13.080;2022-09-03T11:37:18;23.70;61.80
20315;DHT22;10315;50.958;13.080;2022-09-03T11:47:22;23.20;62.00
20315;DHT22;10315;50.958;13.080;2022-09-03T11:57:28;23.10;63.70
20315;DHT22;10315;50.958;13.080;2022-09-03T12:07:44;24.50;61.30
20315;DHT22;10315;50.958;13.080;2022-09-03T12:17:53;23.90;59.70
20315;DHT22;10315;50.958;13.080;2022-09-03T12:28:14;23.80;60.00
20315;DHT22;10315;50.958;13.080;2022-09-03T12:38:23;24.00;59.50
20315;DHT22;10315;50.958;13.080;2022-09-03T12:48:25;23.90;61.00
20315;DHT22;10315;50.958;13.080;2022-09-03T12:58:31;23.90;61.50
20315;DHT22;10315;50.958;13.080;2022-09-03T13:08:40;23.30;63.20
20315;DHT22;10315;50.958;13.080;2022-09-03T13:18:51;23.70;63.40
20315;DHT22;10315;50.958;13.080;2022-09-03T13:29:11;23.30;63.50
20315;DHT22;10315;50.958;13.080;2022-09-03T13:39:24;23.40;63.90
20315;DHT22;10315;50.958;13.080;2022-09-03T13:49:33;23.30;63.70
20315;DHT22;10315;50.958;13.080;2022-09-03T13:59:59;23.40;65.20
20315;DHT22;10315;50.958;13.080;2022-09-03T14:10:10;23.30;66.90
20315;DHT22;10315;50.958;13.080;2022-09-03T14:20:35;23.50;66.60
20315;DHT22;10315;50.958;13.080;2022-09-03T14:30:46;23.40;67.30
20315;DHT22;10315;50.958;13.080;2022-09-03T14:40:57;23.70;67.10
20315;DHT22;10315;50.958;13.080;2022-09-03T14:51:14;23.20;66.20
20315;DHT22;10315;50.958;13.080;2022-09-03T15:01:25;22.70;67.20
20315;DHT22;10315;50.958;13.080;2022-09-03T15:11:31;22.70;67.20
20315;DHT22;10315;50.958;13.080;2022-09-03T15:21:46;22.60;67.20
20315;DHT22;10315;50.958;13.080;2022-09-03T15:31:54;22.50;68.40
20315;DHT22;10315;50.958;13.080;2022-09-03T15:42:05;22.20;68.60
20315;DHT22;10315;50.958;13.080;2022-09-03T15:52:23;21.90;67.70
20315;DHT22;10315;50.958;13.080;2022-09-03T16:02:31;21.90;68.00
20315;DHT22;10315;50.958;13.080;2022-09-03T16:12:39;21.70;69.70
20315;DHT22;10315;50.958;13.080;2022-09-03T16:22:50;21.50;69.50
20315;DHT22;10315;50.958;13.080;2022-09-03T16:33:09;20.70;72.40
20315;DHT22;10315;50.958;13.080;2022-09-03T16:43:22;20.30;74.50
20315;DHT22;10315;50.958;13.080;2022-09-03T16:53:30;20.10;75.90
20315;DHT22;10315;50.958;13.080;2022-09-03T17:03:59;19.80;78.50
20315;DHT22;10315;50.958;13.080;2022-09-03T17:24:40;19.00;86.00
20315;DHT22;10315;50.958;13.080;2022-09-03T17:34:52;18.70;87.70
20315;DHT22;10315;50.958;13.080;2022-09-03T17:45:07;18.40;90.30
20315;DHT22;10315;50.958;13.080;2022-09-03T17:55:14;18.10;91.70
20315;DHT22;10315;50.958;13.080;2022-09-03T18:05:23;17.80;92.30
20315;DHT22;10315;50.958;13.080;2022-09-03T18:15:30;17.60;93.30
20315;DHT22;10315;50.958;13.080;2022-09-03T18:25:36;17.30;95.00
20315;DHT22;10315;50.958;13.080;2022-09-03T18:35:57;17.20;97.40
20315;DHT22;10315;50.958;13.080;2022-09-03T18:46:23;16.90;99.90
20315;DHT22;10315;50.958;13.080;2022-09-03T18:56:48;16.60;99.90
20315;DHT22;10315;50.958;13.080;2022-09-03T19:07:11;16.50;99.90
20315;DHT22;10315;50.958;13.080;2022-09-03T19:17:42;16.50;99.90
20315;DHT22;10315;50.958;13.080;2022-09-03T19:28:13;16.50;99.90
20315;DHT22;10315;50.958;13.080;2022-09-03T19:38:40;16.40;99.90
20315;DHT22;10315;50.958;13.080;2022-09-03T19:49:09;16.30;99.90
20315;DHT22;10315;50.958;13.080;2022-09-03T19:59:35;16.30;99.90
20315;DHT22;10315;50.958;13.080;2022-09-03T20:10:02;16.10;99.90
20315;DHT22;10315;50.958;13.080;2022-09-03T20:20:25;16.20;99.90
20315;DHT22;10315;50.958;13.080;2022-09-03T20:30:35;16.20;99.90
20315;DHT22;10315;50.958;13.080;2022-09-03T20:40:45;16.30;99.90
20315;DHT22;10315;50.958;13.080;2022-09-03T20:50:53;16.30;99.90
20315;DHT22;10315;50.958;13.080;2022-09-03T21:01:02;16.20;99.90
20315;DHT22;10315;50.958;13.080;2022-09-03T21:11:11;16.00;99.90
20315;DHT22;10315;50.958;13.080;2022-09-03T21:21:20;16.00;99.90
20315;DHT22;10315;50.958;13.080;2022-09-03T21:31:37;15.60;99.90
20315;DHT22;10315;50.958;13.080;2022-09-03T21:41:44;15.40;99.90
20315;DHT22;10315;50.958;13.080;2022-09-03T21:51:57;15.40;99.90
20315;DHT22;10315;50.958;13.080;2022-09-03T22:02:05;15.40;99.90
20315;DHT22;10315;50.958;13.080;2022-09-03T22:12:17;15.40;99.90
20315;DHT22;10315;50.958;13.080;2022-09-03T22:22:26;15.40;99.90
20315;DHT22;10315;50.958;13.080;2022-09-03T22:32:43;15.20;99.90
20315;DHT22;10315;50.958;13.080;2022-09-03T22:43:17;15.20;99.90
20315;DHT22;10315;50.958;13.080;2022-09-03T22:53:33;14.90;99.90
20315;DHT22;10315;50.958;13.080;2022-09-03T23:03:46;14.60;99.90
20315;DHT22;10315;50.958;13.080;2022-09-03T23:13:55;14.50;99.90
20315;DHT22;10315;50.958;13.080;2022-09-03T23:24:06;14.30;99.90
20315;DHT22;10315;50.958;13.080;2022-09-03T23:34:11;14.60;99.90
20315;DHT22;10315;50.958;13.080;2022-09-03T23:44:31;15.00;99.90
20315;DHT22;10315;50.958;13.080;2022-09-03T23:54:38;15.00;99.90
